CYPO

Peawanuck Airport

Peawanuck, Ontario, Canada
METAR CYPO 180600Z AUTO 28009KT 9SM CLR M27/M31 A2972 RMK SLP075
Observed Flight Rules
Feb-18 @ 06:00 UTC (an hour ago) Visual Flight Rules
Wind Visibility Clouds
280° at 9 knots 9 miles
  • Clear skies
Temperatures Readings
Current -27°C / -17°F
Dewpoint -31°C / -24°F
Humidity 69%
Altimeter 29.72" Hg
Pressure 1007.5 hPa
Elevation 53
METAR CYPO 180600Z AUTO 28009KT 9SM CLR M27/M31 A2972 RMK SLP075
Observed Flight Rules
Feb-18 @ 06:00 UTC
(an hour ago)
VFR
Wind Visibility
280° at 9 knots 9 miles
Clouds
  • Clear skies
Temperature Dewpoint
-27°C / -17°F -31°C / -24°F
Humidity Altimeter Pressure
69% 29.72" Hg 1007.5 hPa